sensor_id;sensor_type;location;lat;lon;timestamp;P1;durP1;ratioP1;P2;durP2;ratioP2
19364;SDS011;9818;48.382;10.850;2023-05-06T00:01:05;1.97;;;1.87;;
19364;SDS011;9818;48.382;10.850;2023-05-06T00:03:34;2.00;;;1.90;;
19364;SDS011;9818;48.382;10.850;2023-05-06T00:06:03;2.20;;;2.00;;
19364;SDS011;9818;48.382;10.850;2023-05-06T00:08:32;2.63;;;2.07;;
19364;SDS011;9818;48.382;10.850;2023-05-06T00:11:01;2.10;;;1.90;;
19364;SDS011;9818;48.382;10.850;2023-05-06T00:13:32;1.83;;;1.73;;
19364;SDS011;9818;48.382;10.850;2023-05-06T00:16:01;2.00;;;1.90;;
19364;SDS011;9818;48.382;10.850;2023-05-06T00:18:30;1.80;;;1.70;;
19364;SDS011;9818;48.382;10.850;2023-05-06T00:20:59;2.10;;;1.90;;
19364;SDS011;9818;48.382;10.850;2023-05-06T00:23:28;1.90;;;1.77;;
19364;SDS011;9818;48.382;10.850;2023-05-06T00:25:56;3.10;;;2.20;;
19364;SDS011;9818;48.382;10.850;2023-05-06T00:28:25;2.07;;;1.87;;
19364;SDS011;9818;48.382;10.850;2023-05-06T00:30:56;2.07;;;1.90;;
19364;SDS011;9818;48.382;10.850;2023-05-06T00:33:25;3.10;;;1.93;;
19364;SDS011;9818;48.382;10.850;2023-05-06T00:35:54;2.20;;;1.97;;
19364;SDS011;9818;48.382;10.850;2023-05-06T00:38:22;1.90;;;1.80;;
19364;SDS011;9818;48.382;10.850;2023-05-06T00:40:51;2.00;;;1.80;;
19364;SDS011;9818;48.382;10.850;2023-05-06T00:43:19;1.80;;;1.70;;
19364;SDS011;9818;48.382;10.850;2023-05-06T00:45:48;2.17;;;1.97;;
19364;SDS011;9818;48.382;10.850;2023-05-06T00:48:21;2.00;;;1.90;;
19364;SDS011;9818;48.382;10.850;2023-05-06T00:50:50;2.20;;;1.80;;
19364;SDS011;9818;48.382;10.850;2023-05-06T00:53:19;2.10;;;1.90;;
19364;SDS011;9818;48.382;10.850;2023-05-06T00:55:48;1.83;;;1.73;;
19364;SDS011;9818;48.382;10.850;2023-05-06T00:58:18;2.30;;;2.00;;
19364;SDS011;9818;48.382;10.850;2023-05-06T01:00:47;1.90;;;1.80;;
19364;SDS011;9818;48.382;10.850;2023-05-06T01:03:16;1.60;;;1.50;;
19364;SDS011;9818;48.382;10.850;2023-05-06T01:05:50;2.10;;;1.90;;
19364;SDS011;9818;48.382;10.850;2023-05-06T01:08:35;1.83;;;1.73;;
19364;SDS011;9818;48.382;10.850;2023-05-06T01:11:10;2.13;;;1.93;;
19364;SDS011;9818;48.382;10.850;2023-05-06T01:13:44;1.90;;;1.80;;
19364;SDS011;9818;48.382;10.850;2023-05-06T01:16:17;1.90;;;1.70;;
19364;SDS011;9818;48.382;10.850;2023-05-06T01:18:48;2.20;;;1.70;;
19364;SDS011;9818;48.382;10.850;2023-05-06T01:21:22;1.90;;;1.80;;
19364;SDS011;9818;48.382;10.850;2023-05-06T01:24:01;2.43;;;1.97;;
19364;SDS011;9818;48.382;10.850;2023-05-06T01:26:29;2.10;;;1.90;;
19364;SDS011;9818;48.382;10.850;2023-05-06T01:28:58;2.20;;;2.00;;
19364;SDS011;9818;48.382;10.850;2023-05-06T01:31:29;2.03;;;1.83;;
19364;SDS011;9818;48.382;10.850;2023-05-06T01:34:04;3.03;;;1.87;;
19364;SDS011;9818;48.382;10.850;2023-05-06T01:36:40;1.83;;;1.73;;
19364;SDS011;9818;48.382;10.850;2023-05-06T01:39:22;1.97;;;1.77;;
19364;SDS011;9818;48.382;10.850;2023-05-06T01:41:52;2.10;;;1.90;;
19364;SDS011;9818;48.382;10.850;2023-05-06T01:44:25;2.00;;;1.90;;
19364;SDS011;9818;48.382;10.850;2023-05-06T01:46:58;2.23;;;2.03;;
19364;SDS011;9818;48.382;10.850;2023-05-06T01:49:28;2.00;;;1.73;;
19364;SDS011;9818;48.382;10.850;2023-05-06T01:51:57;2.27;;;2.07;;
19364;SDS011;9818;48.382;10.850;2023-05-06T01:54:28;1.77;;;1.60;;
19364;SDS011;9818;48.382;10.850;2023-05-06T01:56:57;2.47;;;1.90;;
19364;SDS011;9818;48.382;10.850;2023-05-06T01:59:26;1.83;;;1.73;;
19364;SDS011;9818;48.382;10.850;2023-05-06T02:01:54;2.07;;;1.93;;
19364;SDS011;9818;48.382;10.850;2023-05-06T02:04:23;1.90;;;1.60;;
19364;SDS011;9818;48.382;10.850;2023-05-06T02:06:52;1.97;;;1.80;;
19364;SDS011;9818;48.382;10.850;2023-05-06T02:09:21;2.20;;;2.00;;
19364;SDS011;9818;48.382;10.850;2023-05-06T02:11:52;2.10;;;1.87;;
19364;SDS011;9818;48.382;10.850;2023-05-06T02:14:21;2.30;;;2.10;;
19364;SDS011;9818;48.382;10.850;2023-05-06T02:16:49;2.53;;;1.73;;
19364;SDS011;9818;48.382;10.850;2023-05-06T02:19:19;1.80;;;1.70;;
19364;SDS011;9818;48.382;10.850;2023-05-06T02:21:48;1.90;;;1.80;;
19364;SDS011;9818;48.382;10.850;2023-05-06T02:24:16;2.13;;;1.93;;
19364;SDS011;9818;48.382;10.850;2023-05-06T02:26:45;2.00;;;1.90;;
19364;SDS011;9818;48.382;10.850;2023-05-06T02:29:16;2.50;;;1.87;;
19364;SDS011;9818;48.382;10.850;2023-05-06T02:31:45;2.13;;;1.90;;
19364;SDS011;9818;48.382;10.850;2023-05-06T02:34:13;2.63;;;2.20;;
19364;SDS011;9818;48.382;10.850;2023-05-06T02:36:42;2.30;;;2.10;;
19364;SDS011;9818;48.382;10.850;2023-05-06T02:39:11;2.20;;;2.00;;
19364;SDS011;9818;48.382;10.850;2023-05-06T02:41:39;2.40;;;2.20;;
19364;SDS011;9818;48.382;10.850;2023-05-06T02:44:08;2.50;;;2.30;;
19364;SDS011;9818;48.382;10.850;2023-05-06T02:46:39;3.37;;;2.13;;
19364;SDS011;9818;48.382;10.850;2023-05-06T02:49:08;2.60;;;2.40;;
19364;SDS011;9818;48.382;10.850;2023-05-06T02:51:36;2.40;;;2.20;;
19364;SDS011;9818;48.382;10.850;2023-05-06T02:54:05;2.43;;;2.23;;
19364;SDS011;9818;48.382;10.850;2023-05-06T02:56:34;2.50;;;2.30;;
19364;SDS011;9818;48.382;10.850;2023-05-06T02:59:02;1.80;;;1.70;;
19364;SDS011;9818;48.382;10.850;2023-05-06T03:01:32;2.00;;;1.80;;
19364;SDS011;9818;48.382;10.850;2023-05-06T03:04:03;2.40;;;2.20;;
19364;SDS011;9818;48.382;10.850;2023-05-06T03:06:32;2.50;;;2.30;;
19364;SDS011;9818;48.382;10.850;2023-05-06T03:09:00;2.23;;;1.90;;
19364;SDS011;9818;48.382;10.850;2023-05-06T03:11:29;2.10;;;1.90;;
19364;SDS011;9818;48.382;10.850;2023-05-06T03:13:59;2.77;;;2.00;;
19364;SDS011;9818;48.382;10.850;2023-05-06T03:16:28;2.37;;;2.10;;
19364;SDS011;9818;48.382;10.850;2023-05-06T03:18:56;2.10;;;1.90;;
19364;SDS011;9818;48.382;10.850;2023-05-06T03:21:28;2.33;;;2.13;;
19364;SDS011;9818;48.382;10.850;2023-05-06T03:23:57;2.20;;;2.00;;
19364;SDS011;9818;48.382;10.850;2023-05-06T03:26:26;2.37;;;2.17;;
19364;SDS011;9818;48.382;10.850;2023-05-06T03:28:54;2.30;;;2.10;;
19364;SDS011;9818;48.382;10.850;2023-05-06T03:31:23;2.47;;;2.27;;
19364;SDS011;9818;48.382;10.850;2023-05-06T03:33:52;3.90;;;2.33;;
19364;SDS011;9818;48.382;10.850;2023-05-06T03:36:20;2.50;;;2.30;;
19364;SDS011;9818;48.382;10.850;2023-05-06T03:38:54;2.90;;;2.60;;
19364;SDS011;9818;48.382;10.850;2023-05-06T03:41:23;2.40;;;2.20;;
19364;SDS011;9818;48.382;10.850;2023-05-06T03:43:52;2.60;;;2.40;;
19364;SDS011;9818;48.382;10.850;2023-05-06T03:46:20;2.93;;;2.17;;
19364;SDS011;9818;48.382;10.850;2023-05-06T03:48:49;2.30;;;2.10;;
19364;SDS011;9818;48.382;10.850;2023-05-06T03:51:18;2.50;;;2.30;;
19364;SDS011;9818;48.382;10.850;2023-05-06T03:53:46;2.50;;;2.23;;
19364;SDS011;9818;48.382;10.850;2023-05-06T03:56:17;2.40;;;2.20;;
19364;SDS011;9818;48.382;10.850;2023-05-06T03:58:47;2.83;;;2.40;;
19364;SDS011;9818;48.382;10.850;2023-05-06T04:01:15;2.40;;;2.20;;
19364;SDS011;9818;48.382;10.850;2023-05-06T04:03:44;2.40;;;2.20;;
19364;SDS011;9818;48.382;10.850;2023-05-06T04:06:13;2.60;;;2.40;;
19364;SDS011;9818;48.382;10.850;2023-05-06T04:08:42;2.70;;;2.50;;
19364;SDS011;9818;48.382;10.850;2023-05-06T04:11:10;2.70;;;2.50;;
19364;SDS011;9818;48.382;10.850;2023-05-06T04:13:41;2.70;;;2.30;;
19364;SDS011;9818;48.382;10.850;2023-05-06T04:16:10;2.20;;;2.00;;
19364;SDS011;9818;48.382;10.850;2023-05-06T04:18:39;2.67;;;2.37;;
19364;SDS011;9818;48.382;10.850;2023-05-06T04:21:08;2.47;;;2.10;;
19364;SDS011;9818;48.382;10.850;2023-05-06T04:23:36;3.03;;;2.70;;
19364;SDS011;9818;48.382;10.850;2023-05-06T04:26:05;2.40;;;2.20;;
19364;SDS011;9818;48.382;10.850;2023-05-06T04:28:34;2.53;;;2.33;;
19364;SDS011;9818;48.382;10.850;2023-05-06T04:31:05;2.80;;;2.53;;
19364;SDS011;9818;48.382;10.850;2023-05-06T04:33:35;3.00;;;2.70;;
19364;SDS011;9818;48.382;10.850;2023-05-06T04:36:04;2.60;;;2.40;;
19364;SDS011;9818;48.382;10.850;2023-05-06T04:38:33;2.87;;;2.50;;
19364;SDS011;9818;48.382;10.850;2023-05-06T04:41:02;2.77;;;2.57;;
19364;SDS011;9818;48.382;10.850;2023-05-06T04:43:30;2.70;;;2.50;;
19364;SDS011;9818;48.382;10.850;2023-05-06T04:45:59;3.70;;;3.03;;
19364;SDS011;9818;48.382;10.850;2023-05-06T04:48:31;2.97;;;2.67;;
19364;SDS011;9818;48.382;10.850;2023-05-06T04:50:59;2.57;;;2.37;;
19364;SDS011;9818;48.382;10.850;2023-05-06T04:53:28;2.87;;;2.57;;
19364;SDS011;9818;48.382;10.850;2023-05-06T04:55:57;2.80;;;2.47;;
19364;SDS011;9818;48.382;10.850;2023-05-06T04:58:25;2.77;;;2.57;;
19364;SDS011;9818;48.382;10.850;2023-05-06T05:00:54;3.07;;;2.77;;
19364;SDS011;9818;48.382;10.850;2023-05-06T05:03:23;3.03;;;2.73;;
19364;SDS011;9818;48.382;10.850;2023-05-06T05:05:54;2.63;;;2.43;;
19364;SDS011;9818;48.382;10.850;2023-05-06T05:08:23;3.63;;;2.87;;
19364;SDS011;9818;48.382;10.850;2023-05-06T05:10:51;3.07;;;2.73;;
19364;SDS011;9818;48.382;10.850;2023-05-06T05:13:20;3.03;;;2.73;;
19364;SDS011;9818;48.382;10.850;2023-05-06T05:15:49;2.70;;;2.50;;
19364;SDS011;9818;48.382;10.850;2023-05-06T05:18:21;3.13;;;2.83;;
19364;SDS011;9818;48.382;10.850;2023-05-06T05:20:49;2.90;;;2.67;;
19364;SDS011;9818;48.382;10.850;2023-05-06T05:23:21;3.07;;;2.77;;
19364;SDS011;9818;48.382;10.850;2023-05-06T05:25:49;3.00;;;2.70;;
19364;SDS011;9818;48.382;10.850;2023-05-06T05:28:18;3.17;;;2.63;;
19364;SDS011;9818;48.382;10.850;2023-05-06T05:30:47;3.17;;;2.87;;
19364;SDS011;9818;48.382;10.850;2023-05-06T05:33:15;3.20;;;2.83;;
19364;SDS011;9818;48.382;10.850;2023-05-06T05:35:44;3.00;;;2.80;;
19364;SDS011;9818;48.382;10.850;2023-05-06T05:38:13;3.00;;;2.70;;
19364;SDS011;9818;48.382;10.850;2023-05-06T05:40:44;3.27;;;2.80;;
19364;SDS011;9818;48.382;10.850;2023-05-06T05:43:13;2.57;;;2.37;;
19364;SDS011;9818;48.382;10.850;2023-05-06T05:45:41;2.83;;;2.63;;
19364;SDS011;9818;48.382;10.850;2023-05-06T05:48:10;2.83;;;2.60;;
19364;SDS011;9818;48.382;10.850;2023-05-06T05:50:39;3.70;;;2.90;;
19364;SDS011;9818;48.382;10.850;2023-05-06T05:53:07;3.27;;;2.97;;
19364;SDS011;9818;48.382;10.850;2023-05-06T05:55:36;3.63;;;3.10;;
19364;SDS011;9818;48.382;10.850;2023-05-06T05:58:08;4.37;;;3.00;;
19364;SDS011;9818;48.382;10.850;2023-05-06T06:00:37;2.90;;;2.60;;
19364;SDS011;9818;48.382;10.850;2023-05-06T06:03:06;3.03;;;2.73;;
19364;SDS011;9818;48.382;10.850;2023-05-06T06:05:35;2.83;;;2.63;;
19364;SDS011;9818;48.382;10.850;2023-05-06T06:08:04;4.43;;;3.03;;
19364;SDS011;9818;48.382;10.850;2023-05-06T06:10:33;3.13;;;2.83;;
19364;SDS011;9818;48.382;10.850;2023-05-06T06:13:01;2.80;;;2.43;;
19364;SDS011;9818;48.382;10.850;2023-05-06T06:15:33;4.30;;;3.03;;
19364;SDS011;9818;48.382;10.850;2023-05-06T06:18:02;3.10;;;2.80;;
19364;SDS011;9818;48.382;10.850;2023-05-06T06:20:32;2.83;;;2.57;;
19364;SDS011;9818;48.382;10.850;2023-05-06T06:23:01;3.03;;;2.73;;
19364;SDS011;9818;48.382;10.850;2023-05-06T06:25:30;3.70;;;3.40;;
19364;SDS011;9818;48.382;10.850;2023-05-06T06:27:58;3.00;;;2.80;;
19364;SDS011;9818;48.382;10.850;2023-05-06T06:30:27;2.93;;;2.63;;
19364;SDS011;9818;48.382;10.850;2023-05-06T06:32:58;3.80;;;3.07;;
19364;SDS011;9818;48.382;10.850;2023-05-06T06:35:27;3.43;;;3.13;;
19364;SDS011;9818;48.382;10.850;2023-05-06T06:37:56;3.43;;;3.13;;
19364;SDS011;9818;48.382;10.850;2023-05-06T06:40:25;3.30;;;3.00;;
19364;SDS011;9818;48.382;10.850;2023-05-06T06:42:53;3.00;;;2.80;;
19364;SDS011;9818;48.382;10.850;2023-05-06T06:45:22;3.50;;;3.20;;
19364;SDS011;9818;48.382;10.850;2023-05-06T06:47:51;3.57;;;3.20;;
19364;SDS011;9818;48.382;10.850;2023-05-06T06:50:22;3.30;;;3.00;;
19364;SDS011;9818;48.382;10.850;2023-05-06T06:52:51;3.67;;;3.27;;
19364;SDS011;9818;48.382;10.850;2023-05-06T06:55:19;3.70;;;3.13;;
19364;SDS011;9818;48.382;10.850;2023-05-06T06:57:48;3.13;;;2.87;;
19364;SDS011;9818;48.382;10.850;2023-05-06T07:00:17;3.00;;;2.70;;
19364;SDS011;9818;48.382;10.850;2023-05-06T07:02:45;2.80;;;2.60;;
19364;SDS011;9818;48.382;10.850;2023-05-06T07:05:14;3.20;;;2.83;;
19364;SDS011;9818;48.382;10.850;2023-05-06T07:07:45;2.80;;;2.60;;
19364;SDS011;9818;48.382;10.850;2023-05-06T07:10:14;2.83;;;2.60;;
19364;SDS011;9818;48.382;10.850;2023-05-06T07:12:43;3.00;;;2.70;;
19364;SDS011;9818;48.382;10.850;2023-05-06T07:15:11;3.20;;;2.90;;
19364;SDS011;9818;48.382;10.850;2023-05-06T07:17:40;3.33;;;3.03;;
19364;SDS011;9818;48.382;10.850;2023-05-06T07:20:09;3.20;;;2.90;;
19364;SDS011;9818;48.382;10.850;2023-05-06T07:22:40;4.10;;;3.00;;
19364;SDS011;9818;48.382;10.850;2023-05-06T07:25:12;2.77;;;2.57;;
19364;SDS011;9818;48.382;10.850;2023-05-06T07:27:41;3.20;;;2.90;;
19364;SDS011;9818;48.382;10.850;2023-05-06T07:30:10;3.17;;;2.87;;
19364;SDS011;9818;48.382;10.850;2023-05-06T07:32:39;3.80;;;2.90;;
19364;SDS011;9818;48.382;10.850;2023-05-06T07:35:08;2.77;;;2.57;;
19364;SDS011;9818;48.382;10.850;2023-05-06T07:37:36;3.50;;;3.20;;
19364;SDS011;9818;48.382;10.850;2023-05-06T07:40:05;2.90;;;2.70;;
19364;SDS011;9818;48.382;10.850;2023-05-06T07:42:38;3.50;;;2.50;;
19364;SDS011;9818;48.382;10.850;2023-05-06T07:45:07;3.20;;;2.90;;
19364;SDS011;9818;48.382;10.850;2023-05-06T07:47:37;2.67;;;2.47;;
19364;SDS011;9818;48.382;10.850;2023-05-06T07:50:06;3.10;;;2.80;;
19364;SDS011;9818;48.382;10.850;2023-05-06T07:52:35;3.07;;;2.77;;
19364;SDS011;9818;48.382;10.850;2023-05-06T07:55:04;3.07;;;2.77;;
19364;SDS011;9818;48.382;10.850;2023-05-06T07:57:38;3.10;;;2.90;;
19364;SDS011;9818;48.382;10.850;2023-05-06T08:00:07;3.50;;;2.77;;
19364;SDS011;9818;48.382;10.850;2023-05-06T08:02:36;3.30;;;3.00;;
19364;SDS011;9818;48.382;10.850;2023-05-06T08:05:08;2.80;;;2.60;;
19364;SDS011;9818;48.382;10.850;2023-05-06T08:07:37;3.07;;;2.70;;
19364;SDS011;9818;48.382;10.850;2023-05-06T08:10:07;2.87;;;2.63;;
19364;SDS011;9818;48.382;10.850;2023-05-06T08:12:40;2.90;;;2.60;;
19364;SDS011;9818;48.382;10.850;2023-05-06T08:15:09;2.90;;;2.70;;
19364;SDS011;9818;48.382;10.850;2023-05-06T08:17:38;2.77;;;2.50;;
19364;SDS011;9818;48.382;10.850;2023-05-06T08:20:07;2.60;;;2.40;;
19364;SDS011;9818;48.382;10.850;2023-05-06T08:22:36;3.07;;;2.80;;
19364;SDS011;9818;48.382;10.850;2023-05-06T08:25:05;2.77;;;2.53;;
19364;SDS011;9818;48.382;10.850;2023-05-06T08:27:35;2.63;;;2.43;;
19364;SDS011;9818;48.382;10.850;2023-05-06T08:30:07;3.00;;;2.53;;
19364;SDS011;9818;48.382;10.850;2023-05-06T08:32:36;2.57;;;2.37;;
19364;SDS011;9818;48.382;10.850;2023-05-06T08:35:06;2.40;;;2.20;;
19364;SDS011;9818;48.382;10.850;2023-05-06T08:37:35;2.87;;;2.67;;
19364;SDS011;9818;48.382;10.850;2023-05-06T08:40:04;2.47;;;2.27;;
19364;SDS011;9818;48.382;10.850;2023-05-06T08:42:39;2.40;;;2.20;;
19364;SDS011;9818;48.382;10.850;2023-05-06T08:45:11;2.37;;;2.20;;
19364;SDS011;9818;48.382;10.850;2023-05-06T08:47:39;2.60;;;2.40;;
19364;SDS011;9818;48.382;10.850;2023-05-06T08:50:09;2.77;;;2.20;;
19364;SDS011;9818;48.382;10.850;2023-05-06T08:52:38;2.30;;;2.10;;
19364;SDS011;9818;48.382;10.850;2023-05-06T08:55:07;2.50;;;2.07;;
19364;SDS011;9818;48.382;10.850;2023-05-06T08:57:36;2.40;;;2.20;;
19364;SDS011;9818;48.382;10.850;2023-05-06T09:00:06;2.30;;;2.00;;
19364;SDS011;9818;48.382;10.850;2023-05-06T09:02:39;2.33;;;2.13;;
19364;SDS011;9818;48.382;10.850;2023-05-06T09:05:08;2.50;;;2.30;;
19364;SDS011;9818;48.382;10.850;2023-05-06T09:07:37;2.63;;;2.30;;
19364;SDS011;9818;48.382;10.850;2023-05-06T09:10:06;1.90;;;1.80;;
19364;SDS011;9818;48.382;10.850;2023-05-06T09:12:41;2.57;;;2.00;;
19364;SDS011;9818;48.382;10.850;2023-05-06T09:15:10;2.40;;;2.20;;
19364;SDS011;9818;48.382;10.850;2023-05-06T09:17:41;2.57;;;2.10;;
19364;SDS011;9818;48.382;10.850;2023-05-06T09:20:10;2.40;;;2.20;;
19364;SDS011;9818;48.382;10.850;2023-05-06T09:22:39;2.10;;;1.90;;
19364;SDS011;9818;48.382;10.850;2023-05-06T09:25:08;3.80;;;2.20;;
19364;SDS011;9818;48.382;10.850;2023-05-06T09:27:37;2.30;;;2.10;;
19364;SDS011;9818;48.382;10.850;2023-05-06T09:30:07;2.37;;;2.20;;
19364;SDS011;9818;48.382;10.850;2023-05-06T09:32:37;2.33;;;2.07;;
19364;SDS011;9818;48.382;10.850;2023-05-06T09:35:09;2.47;;;2.27;;
19364;SDS011;9818;48.382;10.850;2023-05-06T09:37:37;2.10;;;2.00;;
19364;SDS011;9818;48.382;10.850;2023-05-06T09:40:07;2.10;;;2.00;;
19364;SDS011;9818;48.382;10.850;2023-05-06T09:42:36;1.90;;;1.80;;
19364;SDS011;9818;48.382;10.850;2023-05-06T09:45:05;2.33;;;2.13;;
19364;SDS011;9818;48.382;10.850;2023-05-06T09:47:36;1.93;;;1.83;;
19364;SDS011;9818;48.382;10.850;2023-05-06T09:50:06;2.43;;;1.93;;
19364;SDS011;9818;48.382;10.850;2023-05-06T09:52:41;2.20;;;2.00;;
19364;SDS011;9818;48.382;10.850;2023-05-06T09:55:12;2.00;;;1.80;;
19364;SDS011;9818;48.382;10.850;2023-05-06T09:57:41;1.97;;;1.87;;
19364;SDS011;9818;48.382;10.850;2023-05-06T10:00:12;2.00;;;1.80;;
19364;SDS011;9818;48.382;10.850;2023-05-06T10:02:42;2.10;;;1.90;;
19364;SDS011;9818;48.382;10.850;2023-05-06T10:05:14;2.10;;;1.90;;
19364;SDS011;9818;48.382;10.850;2023-05-06T10:07:44;1.90;;;1.80;;
19364;SDS011;9818;48.382;10.850;2023-05-06T10:10:16;2.10;;;1.90;;
19364;SDS011;9818;48.382;10.850;2023-05-06T10:12:45;2.00;;;1.90;;
19364;SDS011;9818;48.382;10.850;2023-05-06T10:15:15;1.90;;;1.80;;
19364;SDS011;9818;48.382;10.850;2023-05-06T10:17:44;2.00;;;1.90;;
19364;SDS011;9818;48.382;10.850;2023-05-06T10:20:16;2.33;;;2.13;;
19364;SDS011;9818;48.382;10.850;2023-05-06T10:22:51;2.40;;;2.20;;
19364;SDS011;9818;48.382;10.850;2023-05-06T10:25:29;2.40;;;2.20;;
19364;SDS011;9818;48.382;10.850;2023-05-06T10:28:04;1.87;;;1.77;;
19364;SDS011;9818;48.382;10.850;2023-05-06T10:30:35;2.13;;;2.03;;
19364;SDS011;9818;48.382;10.850;2023-05-06T10:33:05;1.97;;;1.87;;
19364;SDS011;9818;48.382;10.850;2023-05-06T10:35:41;1.90;;;1.80;;
19364;SDS011;9818;48.382;10.850;2023-05-06T10:38:16;1.90;;;1.80;;
19364;SDS011;9818;48.382;10.850;2023-05-06T10:40:50;1.80;;;1.70;;
19364;SDS011;9818;48.382;10.850;2023-05-06T10:43:24;2.20;;;2.00;;
19364;SDS011;9818;48.382;10.850;2023-05-06T10:45:58;2.10;;;1.90;;
19364;SDS011;9818;48.382;10.850;2023-05-06T10:48:28;1.90;;;1.80;;
19364;SDS011;9818;48.382;10.850;2023-05-06T10:53:59;1.90;;;1.80;;
19364;SDS011;9818;48.382;10.850;2023-05-06T10:56:31;1.80;;;1.70;;
19364;SDS011;9818;48.382;10.850;2023-05-06T10:59:01;2.23;;;2.03;;
19364;SDS011;9818;48.382;10.850;2023-05-06T11:01:32;2.10;;;2.00;;
19364;SDS011;9818;48.382;10.850;2023-05-06T11:04:04;2.23;;;2.03;;
19364;SDS011;9818;48.382;10.850;2023-05-06T11:06:38;1.93;;;1.80;;
19364;SDS011;9818;48.382;10.850;2023-05-06T11:09:15;1.87;;;1.77;;
19364;SDS011;9818;48.382;10.850;2023-05-06T11:11:45;2.00;;;1.90;;
19364;SDS011;9818;48.382;10.850;2023-05-06T11:14:25;1.90;;;1.80;;
19364;SDS011;9818;48.382;10.850;2023-05-06T11:16:55;2.00;;;1.90;;
19364;SDS011;9818;48.382;10.850;2023-05-06T11:19:25;2.00;;;1.80;;
19364;SDS011;9818;48.382;10.850;2023-05-06T11:21:58;1.93;;;1.77;;
19364;SDS011;9818;48.382;10.850;2023-05-06T11:24:28;2.07;;;1.90;;
19364;SDS011;9818;48.382;10.850;2023-05-06T11:26:58;2.20;;;2.00;;
19364;SDS011;9818;48.382;10.850;2023-05-06T11:29:27;2.10;;;1.90;;
19364;SDS011;9818;48.382;10.850;2023-05-06T11:31:56;1.83;;;1.73;;
19364;SDS011;9818;48.382;10.850;2023-05-06T11:34:25;1.63;;;1.53;;
19364;SDS011;9818;48.382;10.850;2023-05-06T11:36:58;2.07;;;1.83;;
19364;SDS011;9818;48.382;10.850;2023-05-06T11:39:29;1.70;;;1.60;;
19364;SDS011;9818;48.382;10.850;2023-05-06T11:42:00;1.80;;;1.70;;
19364;SDS011;9818;48.382;10.850;2023-05-06T11:44:31;1.80;;;1.70;;
19364;SDS011;9818;48.382;10.850;2023-05-06T11:47:01;1.70;;;1.60;;
19364;SDS011;9818;48.382;10.850;2023-05-06T11:49:34;2.10;;;1.90;;
19364;SDS011;9818;48.382;10.850;2023-05-06T11:52:06;1.80;;;1.60;;
19364;SDS011;9818;48.382;10.850;2023-05-06T11:54:37;1.73;;;1.63;;
19364;SDS011;9818;48.382;10.850;2023-05-06T11:57:07;1.90;;;1.80;;
19364;SDS011;9818;48.382;10.850;2023-05-06T11:59:36;1.70;;;1.60;;
19364;SDS011;9818;48.382;10.850;2023-05-06T12:02:06;2.00;;;1.90;;
19364;SDS011;9818;48.382;10.850;2023-05-06T12:04:37;1.87;;;1.77;;
19364;SDS011;9818;48.382;10.850;2023-05-06T12:07:10;1.60;;;1.50;;
19364;SDS011;9818;48.382;10.850;2023-05-06T12:09:41;1.70;;;1.60;;
19364;SDS011;9818;48.382;10.850;2023-05-06T12:12:14;1.80;;;1.70;;
19364;SDS011;9818;48.382;10.850;2023-05-06T12:14:44;2.43;;;1.80;;
19364;SDS011;9818;48.382;10.850;2023-05-06T12:17:13;1.93;;;1.83;;
19364;SDS011;9818;48.382;10.850;2023-05-06T12:19:42;2.30;;;1.80;;
19364;SDS011;9818;48.382;10.850;2023-05-06T12:22:16;1.70;;;1.60;;
19364;SDS011;9818;48.382;10.850;2023-05-06T12:24:46;1.60;;;1.50;;
19364;SDS011;9818;48.382;10.850;2023-05-06T12:27:26;1.90;;;1.63;;
19364;SDS011;9818;48.382;10.850;2023-05-06T12:29:56;2.00;;;1.90;;
19364;SDS011;9818;48.382;10.850;2023-05-06T12:32:25;1.70;;;1.60;;
19364;SDS011;9818;48.382;10.850;2023-05-06T12:34:54;1.80;;;1.70;;
19364;SDS011;9818;48.382;10.850;2023-05-06T12:37:27;1.53;;;1.43;;
19364;SDS011;9818;48.382;10.850;2023-05-06T12:39:56;1.70;;;1.60;;
19364;SDS011;9818;48.382;10.850;2023-05-06T12:42:25;1.40;;;1.30;;
19364;SDS011;9818;48.382;10.850;2023-05-06T12:44:54;1.40;;;1.30;;
19364;SDS011;9818;48.382;10.850;2023-05-06T12:47:23;1.60;;;1.50;;
19364;SDS011;9818;48.382;10.850;2023-05-06T12:49:53;1.83;;;1.73;;
19364;SDS011;9818;48.382;10.850;2023-05-06T12:52:23;1.63;;;1.53;;
19364;SDS011;9818;48.382;10.850;2023-05-06T12:54:55;1.70;;;1.60;;
19364;SDS011;9818;48.382;10.850;2023-05-06T12:57:24;1.50;;;1.40;;
19364;SDS011;9818;48.382;10.850;2023-05-06T12:59:52;1.77;;;1.67;;
19364;SDS011;9818;48.382;10.850;2023-05-06T13:02:21;1.63;;;1.53;;
19364;SDS011;9818;48.382;10.850;2023-05-06T13:04:50;3.00;;;1.80;;
19364;SDS011;9818;48.382;10.850;2023-05-06T13:07:18;1.67;;;1.57;;
19364;SDS011;9818;48.382;10.850;2023-05-06T13:09:50;1.80;;;1.70;;
19364;SDS011;9818;48.382;10.850;2023-05-06T13:12:18;1.40;;;1.30;;
19364;SDS011;9818;48.382;10.850;2023-05-06T13:14:47;1.50;;;1.40;;
19364;SDS011;9818;48.382;10.850;2023-05-06T13:17:15;1.60;;;1.50;;
19364;SDS011;9818;48.382;10.850;2023-05-06T13:19:44;1.40;;;1.30;;
19364;SDS011;9818;48.382;10.850;2023-05-06T13:22:13;1.57;;;1.47;;
19364;SDS011;9818;48.382;10.850;2023-05-06T13:24:42;1.80;;;1.70;;
19364;SDS011;9818;48.382;10.850;2023-05-06T13:27:13;1.60;;;1.50;;
19364;SDS011;9818;48.382;10.850;2023-05-06T13:29:41;1.67;;;1.57;;
19364;SDS011;9818;48.382;10.850;2023-05-06T13:32:10;1.90;;;1.80;;
19364;SDS011;9818;48.382;10.850;2023-05-06T13:34:39;1.50;;;1.40;;
19364;SDS011;9818;48.382;10.850;2023-05-06T13:37:07;1.70;;;1.60;;
19364;SDS011;9818;48.382;10.850;2023-05-06T13:39:36;1.60;;;1.50;;
19364;SDS011;9818;48.382;10.850;2023-05-06T13:42:05;1.80;;;1.70;;
19364;SDS011;9818;48.382;10.850;2023-05-06T13:44:36;1.67;;;1.57;;
19364;SDS011;9818;48.382;10.850;2023-05-06T13:47:04;1.77;;;1.67;;
19364;SDS011;9818;48.382;10.850;2023-05-06T13:49:36;1.60;;;1.50;;
19364;SDS011;9818;48.382;10.850;2023-05-06T13:52:05;1.80;;;1.70;;
19364;SDS011;9818;48.382;10.850;2023-05-06T13:54:33;1.83;;;1.60;;
19364;SDS011;9818;48.382;10.850;2023-05-06T13:57:02;1.60;;;1.50;;
19364;SDS011;9818;48.382;10.850;2023-05-06T13:59:31;1.73;;;1.50;;
19364;SDS011;9818;48.382;10.850;2023-05-06T14:02:02;1.63;;;1.53;;
19364;SDS011;9818;48.382;10.850;2023-05-06T14:04:31;1.60;;;1.50;;
19364;SDS011;9818;48.382;10.850;2023-05-06T14:06:59;1.70;;;1.60;;
19364;SDS011;9818;48.382;10.850;2023-05-06T14:09:28;1.70;;;1.60;;
19364;SDS011;9818;48.382;10.850;2023-05-06T14:11:57;1.60;;;1.50;;
19364;SDS011;9818;48.382;10.850;2023-05-06T14:14:26;1.60;;;1.50;;
19364;SDS011;9818;48.382;10.850;2023-05-06T14:16:55;1.57;;;1.47;;
19364;SDS011;9818;48.382;10.850;2023-05-06T14:19:27;1.60;;;1.50;;
19364;SDS011;9818;48.382;10.850;2023-05-06T14:21:55;1.77;;;1.67;;
19364;SDS011;9818;48.382;10.850;2023-05-06T14:24:24;1.70;;;1.60;;
19364;SDS011;9818;48.382;10.850;2023-05-06T14:26:53;1.70;;;1.60;;
19364;SDS011;9818;48.382;10.850;2023-05-06T14:29:21;1.87;;;1.60;;
19364;SDS011;9818;48.382;10.850;2023-05-06T14:31:50;1.70;;;1.60;;
19364;SDS011;9818;48.382;10.850;2023-05-06T14:34:19;1.60;;;1.50;;
19364;SDS011;9818;48.382;10.850;2023-05-06T14:36:50;1.63;;;1.50;;
19364;SDS011;9818;48.382;10.850;2023-05-06T14:39:18;1.60;;;1.50;;
19364;SDS011;9818;48.382;10.850;2023-05-06T14:41:47;1.50;;;1.40;;
19364;SDS011;9818;48.382;10.850;2023-05-06T14:44:16;1.70;;;1.60;;
19364;SDS011;9818;48.382;10.850;2023-05-06T14:46:44;1.63;;;1.53;;
19364;SDS011;9818;48.382;10.850;2023-05-06T14:49:13;1.80;;;1.70;;
19364;SDS011;9818;48.382;10.850;2023-05-06T14:51:42;1.40;;;1.30;;
19364;SDS011;9818;48.382;10.850;2023-05-06T14:54:16;1.70;;;1.60;;
19364;SDS011;9818;48.382;10.850;2023-05-06T14:56:45;1.40;;;1.30;;
19364;SDS011;9818;48.382;10.850;2023-05-06T14:59:13;1.47;;;1.37;;
19364;SDS011;9818;48.382;10.850;2023-05-06T15:01:42;1.50;;;1.40;;
19364;SDS011;9818;48.382;10.850;2023-05-06T15:04:11;1.70;;;1.57;;
19364;SDS011;9818;48.382;10.850;2023-05-06T15:06:40;1.60;;;1.50;;